Time;durP1;ratioP1;P1;durP2;ratioP2;P2;SDS_P1;SDS_P2;PMS_P1;PMS_P2;Temp;Humidity;BMP_temperature;BMP_pressure;BME280_temperature;BME280_humidity;BME280_pressure;Samples;Min_cycle;Max_cycle;Signal;HPM_P1;HPM_P2
2020/12/09 00:01:16;;;;;;;38.57;28.93;;;3.00;99.90;;;;;;5059175;28;21024;-78
2020/12/09 00:03:43;;;;;;;42.53;30.67;;;3.00;99.90;;;;;;5067493;28;20558;-79
2020/12/09 00:06:11;;;;;;;37.10;27.67;;;3.00;99.90;;;;;;5069465;28;20559;-79
2020/12/09 00:08:38;;;;;;;37.63;29.83;;;3.00;99.90;;;;;;5062469;28;20486;-78
2020/12/09 00:11:05;;;;;;;39.73;29.63;;;3.00;99.90;;;;;;5065916;28;20483;-78
2020/12/09 00:13:31;;;;;;;42.90;30.27;;;3.00;99.90;;;;;;5066391;28;20482;-80
2020/12/09 00:15:57;;;;;;;40.87;28.07;;;3.00;99.90;;;;;;5068873;28;20508;-79
2020/12/09 00:18:24;;;;;;;37.70;27.50;;;2.90;99.90;;;;;;5068476;28;20470;-78
2020/12/09 00:20:51;;;;;;;36.70;26.83;;;2.90;99.90;;;;;;5065504;28;20477;-79
2020/12/09 00:23:17;;;;;;;39.27;28.00;;;2.90;99.90;;;;;;5056962;28;20487;-78
2020/12/09 00:25:44;;;;;;;37.87;28.47;;;2.80;99.90;;;;;;5071702;28;20915;-78
2020/12/09 00:28:11;;;;;;;40.63;29.83;;;2.80;99.90;;;;;;5060594;28;20646;-79
2020/12/09 00:30:37;;;;;;;41.30;30.70;;;2.80;99.90;;;;;;5065024;28;20451;-78
2020/12/09 00:33:04;;;;;;;37.60;28.93;;;2.70;99.90;;;;;;5063934;28;20449;-78
2020/12/09 00:35:30;;;;;;;38.13;28.60;;;2.70;99.90;;;;;;5065597;28;20495;-79
2020/12/09 00:37:57;;;;;;;37.37;28.53;;;2.70;99.90;;;;;;5063187;28;20455;-78
2020/12/09 00:40:24;;;;;;;38.90;27.77;;;2.70;99.90;;;;;;5067407;28;21057;-78
2020/12/09 00:42:50;;;;;;;36.27;26.90;;;2.70;99.90;;;;;;5068819;28;21005;-77
2020/12/09 00:45:16;;;;;;;44.50;29.77;;;2.70;99.90;;;;;;5057288;28;20958;-77
2020/12/09 00:47:43;;;;;;;41.50;28.63;;;2.70;99.90;;;;;;5067611;28;21423;-78
2020/12/09 00:50:28;;;;;;;42.47;30.20;;;2.80;99.90;;;;;;5064501;28;20464;-78
2020/12/09 00:52:55;;;;;;;40.83;29.30;;;2.70;99.90;;;;;;5060282;28;20450;-79
2020/12/09 00:55:22;;;;;;;39.07;28.17;;;2.70;99.90;;;;;;5057379;28;20476;-78
2020/12/09 00:57:49;;;;;;;37.37;27.93;;;2.70;99.90;;;;;;5061348;28;20478;-78
2020/12/09 01:00:16;;;;;;;38.33;25.90;;;2.80;99.90;;;;;;5059092;28;20487;-78
2020/12/09 01:02:42;;;;;;;41.27;30.13;;;2.80;99.90;;;;;;5069759;28;20482;-78
2020/12/09 01:05:09;;;;;;;36.03;26.87;;;2.80;99.90;;;;;;5061241;28;20531;-80
2020/12/09 01:07:36;;;;;;;37.77;28.83;;;2.90;99.90;;;;;;5056556;28;20480;-78
2020/12/09 01:10:05;;;;;;;35.93;26.13;;;2.90;99.90;;;;;;5065438;28;20461;-78
2020/12/09 01:12:32;;;;;;;40.47;29.10;;;2.90;99.90;;;;;;5070918;28;20534;-79
2020/12/09 01:14:59;;;;;;;34.00;26.60;;;2.80;99.90;;;;;;5059129;28;20536;-79
2020/12/09 01:17:25;;;;;;;37.37;27.23;;;2.80;99.90;;;;;;5053608;28;20510;-78
2020/12/09 01:19:52;;;;;;;37.83;27.43;;;2.70;99.90;;;;;;5057841;28;20505;-78
2020/12/09 01:22:18;;;;;;;36.93;27.23;;;2.80;99.90;;;;;;5064778;28;20479;-78
2020/12/09 01:24:44;;;;;;;36.37;28.17;;;2.80;99.90;;;;;;5066088;28;20454;-78
2020/12/09 01:27:11;;;;;;;38.00;28.57;;;2.80;99.90;;;;;;5060766;28;20476;-78
2020/12/09 01:29:38;;;;;;;38.20;26.73;;;2.80;99.90;;;;;;5070239;28;20443;-78
2020/12/09 01:32:04;;;;;;;40.23;27.90;;;2.90;99.90;;;;;;5066464;28;20538;-79
2020/12/09 01:34:31;;;;;;;38.97;27.87;;;2.90;99.90;;;;;;5070906;28;20576;-77
2020/12/09 01:36:59;;;;;;;38.30;27.10;;;3.00;99.90;;;;;;5058670;28;20452;-77
2020/12/09 01:39:26;;;;;;;38.87;26.93;;;3.00;99.90;;;;;;5068372;28;20448;-77
2020/12/09 01:41:52;;;;;;;32.90;24.97;;;3.00;99.90;;;;;;5062962;28;21007;-79
2020/12/09 01:44:19;;;;;;;36.53;25.73;;;3.00;99.90;;;;;;5062539;28;20490;-79
2020/12/09 01:46:48;;;;;;;35.03;26.30;;;3.00;99.90;;;;;;5067588;28;20812;-77
2020/12/09 01:49:14;;;;;;;36.17;26.70;;;3.00;99.90;;;;;;5064953;28;20455;-78
2020/12/09 01:51:41;;;;;;;41.83;26.80;;;3.10;99.90;;;;;;5065855;28;20490;-78
2020/12/09 01:54:08;;;;;;;32.83;24.50;;;3.10;99.90;;;;;;5059866;28;20478;-78
2020/12/09 01:56:34;;;;;;;36.57;26.43;;;2.90;99.90;;;;;;5061827;28;20480;-78
2020/12/09 01:59:01;;;;;;;37.47;26.77;;;3.00;99.90;;;;;;5060051;28;20455;-78
2020/12/09 02:01:27;;;;;;;34.17;26.57;;;3.00;99.90;;;;;;5053092;28;20460;-79
2020/12/09 02:03:54;;;;;;;39.10;27.20;;;3.00;99.90;;;;;;5068191;28;20528;-78
2020/12/09 02:06:21;;;;;;;35.47;27.00;;;3.00;99.90;;;;;;5062243;28;20459;-78
2020/12/09 02:08:48;;;;;;;36.10;26.10;;;3.00;99.90;;;;;;5060128;28;20507;-79
2020/12/09 02:11:15;;;;;;;36.77;26.20;;;3.10;99.90;;;;;;5055485;28;20968;-77
2020/12/09 02:13:43;;;;;;;35.30;27.37;;;3.10;99.90;;;;;;5057003;28;20508;-78
2020/12/09 02:16:10;;;;;;;34.17;26.87;;;3.00;99.90;;;;;;5057568;28;20471;-78
2020/12/09 02:18:36;;;;;;;35.73;25.93;;;3.10;99.90;;;;;;5062816;28;20563;-78
2020/12/09 02:21:04;;;;;;;44.70;27.60;;;3.10;99.90;;;;;;5072204;28;20446;-80
2020/12/09 02:23:31;;;;;;;37.20;27.60;;;3.10;99.90;;;;;;5065854;28;20554;-77
2020/12/09 02:25:57;;;;;;;37.20;28.10;;;3.00;99.90;;;;;;5069010;28;20451;-78
2020/12/09 02:28:24;;;;;;;36.63;27.70;;;3.00;99.90;;;;;;5058652;28;20567;-78
2020/12/09 02:30:50;;;;;;;38.77;28.67;;;3.00;99.90;;;;;;5067227;28;21026;-78
2020/12/09 02:33:17;;;;;;;36.87;27.60;;;3.00;99.90;;;;;;5057080;28;20457;-79
2020/12/09 02:35:43;;;;;;;38.07;27.93;;;3.00;99.90;;;;;;5061714;28;20515;-78
2020/12/09 02:38:11;;;;;;;38.33;28.60;;;3.10;99.90;;;;;;5060826;28;20890;-81
2020/12/09 02:40:39;;;;;;;38.30;28.20;;;3.10;99.90;;;;;;5058652;28;20466;-78
2020/12/09 02:43:05;;;;;;;39.60;26.97;;;3.10;99.90;;;;;;5064598;28;20459;-78
2020/12/09 02:45:32;;;;;;;39.10;28.00;;;3.10;99.90;;;;;;5062343;28;20541;-78
2020/12/09 02:47:58;;;;;;;40.57;27.60;;;3.00;99.90;;;;;;5069604;28;21241;-77
2020/12/09 02:50:24;;;;;;;38.00;27.53;;;3.00;99.90;;;;;;5068043;28;20463;-78
2020/12/09 02:52:51;;;;;;;39.03;26.63;;;3.00;99.90;;;;;;5068593;28;20442;-78
2020/12/09 02:55:18;;;;;;;40.03;30.17;;;2.90;99.90;;;;;;5058953;28;20458;-78
2020/12/09 02:57:46;;;;;;;40.70;30.20;;;2.90;99.90;;;;;;5066443;28;20601;-78
2020/12/09 03:00:13;;;;;;;37.83;28.33;;;2.80;99.90;;;;;;5058274;28;20906;-78
2020/12/09 03:02:39;;;;;;;45.10;30.60;;;2.80;99.90;;;;;;5069653;28;21243;-77
2020/12/09 03:05:05;;;;;;;40.40;27.90;;;2.80;99.90;;;;;;5061181;28;20505;-78
2020/12/09 03:07:32;;;;;;;43.10;30.37;;;2.90;99.90;;;;;;5074449;28;20951;-77
2020/12/09 03:09:58;;;;;;;42.73;28.67;;;2.90;99.90;;;;;;5060700;28;20479;-78
2020/12/09 03:12:24;;;;;;;40.33;28.83;;;2.80;99.90;;;;;;5068071;28;20465;-78
2020/12/09 03:14:52;;;;;;;40.83;29.90;;;2.70;99.90;;;;;;5064563;28;20545;-77
2020/12/09 03:17:18;;;;;;;40.30;29.10;;;2.80;99.90;;;;;;5064460;28;20805;-77
2020/12/09 03:19:44;;;;;;;40.70;29.10;;;2.80;99.90;;;;;;5062530;28;20908;-77
2020/12/09 03:22:11;;;;;;;38.57;28.47;;;2.90;99.90;;;;;;5053752;28;20502;-77
2020/12/09 03:24:37;;;;;;;40.60;27.47;;;2.90;99.90;;;;;;5061119;28;20538;-77
2020/12/09 03:27:04;;;;;;;35.43;27.63;;;2.80;99.90;;;;;;5063642;28;20481;-78
2020/12/09 03:29:30;;;;;;;44.17;28.50;;;2.70;99.90;;;;;;5062483;28;20512;-78
2020/12/09 03:31:58;;;;;;;41.23;27.73;;;2.70;99.90;;;;;;5063039;28;20859;-77
2020/12/09 03:34:24;;;;;;;38.77;28.83;;;2.70;99.90;;;;;;5069423;28;20466;-77
2020/12/09 03:36:50;;;;;;;36.77;27.83;;;2.70;99.90;;;;;;5063031;28;20459;-77
2020/12/09 03:39:17;;;;;;;37.70;27.17;;;2.70;99.90;;;;;;5060264;28;20448;-78
2020/12/09 03:41:43;;;;;;;34.07;26.70;;;2.70;99.90;;;;;;5063598;28;20513;-77
2020/12/09 03:44:09;;;;;;;39.67;26.87;;;2.80;99.90;;;;;;5062640;28;20916;-77
2020/12/09 03:46:36;;;;;;;39.20;26.43;;;2.70;99.90;;;;;;5059745;28;20993;-77
2020/12/09 03:49:03;;;;;;;43.37;29.93;;;2.70;99.90;;;;;;5063863;28;20457;-77
2020/12/09 03:51:29;;;;;;;37.53;28.03;;;2.60;99.90;;;;;;5060422;28;20563;-77
2020/12/09 03:53:56;;;;;;;41.33;28.73;;;2.60;99.90;;;;;;5058185;28;21130;-78
2020/12/09 03:56:22;;;;;;;45.30;28.80;;;2.60;99.90;;;;;;5055424;28;20463;-78
2020/12/09 03:58:48;;;;;;;39.80;27.33;;;2.60;99.90;;;;;;5067310;28;20489;-77
2020/12/09 04:01:15;;;;;;;39.30;27.70;;;2.60;99.90;;;;;;5058493;28;21018;-80
2020/12/09 04:03:41;;;;;;;40.53;28.93;;;2.50;99.90;;;;;;5057521;28;20602;-78
2020/12/09 04:06:08;;;;;;;43.77;29.27;;;2.50;99.90;;;;;;5065125;28;20521;-80
2020/12/09 04:08:35;;;;;;;38.87;30.07;;;2.50;99.90;;;;;;5065478;28;20489;-79
2020/12/09 04:11:01;;;;;;;38.93;28.67;;;2.60;99.90;;;;;;5061135;28;20513;-80
2020/12/09 04:13:27;;;;;;;41.60;29.20;;;2.60;99.90;;;;;;5056446;28;20564;-78
2020/12/09 04:15:54;;;;;;;38.73;27.70;;;2.60;99.90;;;;;;5059718;28;21532;-78
2020/12/09 04:18:20;;;;;;;42.27;29.70;;;2.60;99.90;;;;;;5059998;28;20494;-78
2020/12/09 04:20:47;;;;;;;43.47;30.70;;;2.60;99.90;;;;;;5067130;28;20492;-78
2020/12/09 04:23:14;;;;;;;39.27;28.17;;;2.50;99.90;;;;;;5050143;28;20470;-78
2020/12/09 04:25:40;;;;;;;41.57;29.47;;;2.60;99.90;;;;;;5062785;28;20559;-79
2020/12/09 04:28:06;;;;;;;43.07;29.30;;;2.50;99.90;;;;;;5063242;28;20491;-78
2020/12/09 04:30:33;;;;;;;39.17;29.30;;;2.50;99.90;;;;;;5059499;28;20488;-78
2020/12/09 04:32:59;;;;;;;47.43;32.87;;;2.50;99.90;;;;;;5059262;28;20541;-79
2020/12/09 04:35:26;;;;;;;44.07;31.20;;;2.50;99.90;;;;;;5064820;28;21144;-78
2020/12/09 04:37:55;;;;;;;44.80;30.97;;;2.50;99.90;;;;;;5052041;28;20530;-78
2020/12/09 04:40:24;;;;;;;47.33;30.50;;;2.40;99.90;;;;;;5058811;28;20498;-78
2020/12/09 04:42:58;;;;;;;48.17;32.10;;;2.40;99.90;;;;;;5056448;28;20571;-79
2020/12/09 04:45:25;;;;;;;47.60;31.17;;;2.40;99.90;;;;;;5060679;28;20538;-76
2020/12/09 04:48:04;;;;;;;47.93;30.73;;;2.30;99.90;;;;;;5063089;28;20476;-78
2020/12/09 04:50:35;;;;;;;51.80;32.90;;;2.30;99.90;;;;;;5067594;28;20454;-79
2020/12/09 04:53:05;;;;;;;44.33;30.77;;;2.30;99.90;;;;;;5059942;28;20445;-78
2020/12/09 04:55:33;;;;;;;51.07;33.23;;;2.30;99.90;;;;;;5061937;28;20450;-78
2020/12/09 04:58:28;;;;;;;50.13;32.10;;;2.40;99.90;;;;;;5073932;28;20499;-78
2020/12/09 05:01:05;;;;;;;53.20;33.30;;;2.40;99.90;;;;;;5048074;28;20454;-78
2020/12/09 05:03:43;;;;;;;52.03;33.37;;;2.40;99.90;;;;;;5061611;28;20473;-78
2020/12/09 05:06:12;;;;;;;47.47;32.03;;;2.40;99.90;;;;;;5055084;28;20850;-78
2020/12/09 05:08:42;;;;;;;48.57;32.80;;;2.30;99.90;;;;;;5064329;28;20492;-78
2020/12/09 05:11:12;;;;;;;51.10;32.30;;;2.40;99.90;;;;;;5060749;28;20469;-78
2020/12/09 05:13:42;;;;;;;47.97;31.47;;;2.40;99.90;;;;;;5069132;28;20507;-79
2020/12/09 05:16:11;;;;;;;52.33;31.87;;;2.40;99.90;;;;;;5064362;28;20458;-78
2020/12/09 05:18:40;;;;;;;44.20;29.87;;;2.40;99.90;;;;;;5066360;28;20872;-78
2020/12/09 05:21:15;;;;;;;49.50;33.97;;;2.40;99.90;;;;;;5057309;28;20551;-78
2020/12/09 05:23:50;;;;;;;44.50;31.23;;;2.50;99.90;;;;;;5062839;28;20993;-79
2020/12/09 05:26:22;;;;;;;46.03;31.77;;;2.60;99.90;;;;;;5056861;28;20455;-77
2020/12/09 05:28:48;;;;;;;49.13;31.03;;;2.60;99.90;;;;;;5068776;28;20472;-78
2020/12/09 05:31:20;;;;;;;47.60;30.77;;;2.60;99.90;;;;;;5059490;28;20545;-77
2020/12/09 05:33:47;;;;;;;49.63;32.00;;;2.50;99.90;;;;;;5067144;28;20457;-79
2020/12/09 05:36:14;;;;;;;51.53;32.27;;;2.50;99.90;;;;;;5068602;28;20447;-78
2020/12/09 05:38:40;;;;;;;42.27;29.67;;;2.70;99.90;;;;;;5073056;28;20521;-79
2020/12/09 05:41:11;;;;;;;47.30;31.60;;;2.70;99.90;;;;;;5063164;28;20480;-79
2020/12/09 05:43:43;;;;;;;48.57;28.73;;;2.80;99.90;;;;;;5074696;28;21136;-79
2020/12/09 05:46:10;;;;;;;50.20;30.40;;;2.70;99.90;;;;;;5058433;28;20475;-78
2020/12/09 05:48:37;;;;;;;52.63;32.13;;;2.70;99.90;;;;;;5064150;28;20459;-80
2020/12/09 05:51:04;;;;;;;49.00;30.90;;;2.80;99.90;;;;;;5068717;28;20482;-79
2020/12/09 05:53:36;;;;;;;43.83;30.13;;;2.80;99.90;;;;;;5066153;28;20452;-80
2020/12/09 05:56:12;;;;;;;45.13;30.47;;;2.70;99.90;;;;;;5071543;28;20447;-78
2020/12/09 05:58:40;;;;;;;44.80;29.70;;;2.70;99.90;;;;;;5073990;28;20474;-77
2020/12/09 06:01:10;;;;;;;48.67;30.40;;;2.70;99.90;;;;;;5062950;28;20546;-75
2020/12/09 06:03:38;;;;;;;44.13;29.30;;;2.90;99.90;;;;;;5056240;28;20584;-77
2020/12/09 06:06:21;;;;;;;48.87;30.23;;;2.90;99.90;;;;;;5057784;28;20450;-75
2020/12/09 06:08:49;;;;;;;49.00;28.43;;;2.80;99.90;;;;;;5057082;28;21013;-78
2020/12/09 06:11:18;;;;;;;45.73;28.33;;;2.90;99.90;;;;;;5058809;28;20453;-77
2020/12/09 06:13:45;;;;;;;42.77;28.83;;;2.90;99.90;;;;;;5059343;28;20475;-76
2020/12/09 06:16:13;;;;;;;44.37;28.30;;;2.90;99.90;;;;;;5057714;28;20463;-76
2020/12/09 06:18:43;;;;;;;43.50;29.40;;;2.90;99.90;;;;;;5062559;28;21115;-75
2020/12/09 06:21:10;;;;;;;43.23;28.57;;;2.90;99.90;;;;;;5058695;28;21116;-76
2020/12/09 06:23:37;;;;;;;39.53;26.77;;;2.90;99.90;;;;;;5063565;28;20579;-77
2020/12/09 06:26:05;;;;;;;42.07;28.40;;;2.90;99.90;;;;;;5061386;28;20883;-76
2020/12/09 06:28:34;;;;;;;41.90;27.83;;;3.00;99.90;;;;;;5054554;28;20489;-77
2020/12/09 06:31:10;;;;;;;47.90;29.70;;;3.10;99.90;;;;;;5057637;28;20491;-77
2020/12/09 06:33:39;;;;;;;47.80;30.17;;;3.30;99.90;;;;;;5053606;28;20864;-77
2020/12/09 06:36:24;;;;;;;43.30;27.40;;;3.20;99.90;;;;;;5061439;28;20584;-77
2020/12/09 06:39:21;;;;;;;40.93;26.93;;;3.20;99.90;;;;;;5059934;28;20585;-77
2020/12/09 06:42:09;;;;;;;43.23;28.73;;;3.10;99.90;;;;;;4979942;28;20621;-76
2020/12/09 06:44:51;;;;;;;42.10;29.73;;;3.00;99.90;;;;;;5047966;28;21131;-76
2020/12/09 06:47:17;;;;;;;41.90;28.30;;;3.00;99.90;;;;;;5059624;28;20437;-76
2020/12/09 06:49:46;;;;;;;45.40;30.90;;;3.10;99.90;;;;;;5059761;28;20798;-77
2020/12/09 06:52:33;;;;;;;46.23;29.67;;;3.10;99.90;;;;;;5060042;28;20476;-77
2020/12/09 06:55:00;;;;;;;42.20;28.93;;;3.20;99.90;;;;;;5068498;28;20435;-77
2020/12/09 06:57:29;;;;;;;43.10;28.00;;;3.10;99.90;;;;;;5063978;28;20483;-76
2020/12/09 07:00:23;;;;;;;44.33;28.70;;;3.20;99.90;;;;;;5055391;28;20974;-77
2020/12/09 07:02:54;;;;;;;49.03;31.57;;;3.20;99.90;;;;;;5021690;28;20468;-78
2020/12/09 07:05:27;;;;;;;43.40;29.40;;;3.20;99.90;;;;;;5059101;28;20941;-80
2020/12/09 07:08:00;;;;;;;39.23;28.43;;;3.30;99.90;;;;;;5065492;28;20537;-77
2020/12/09 07:10:29;;;;;;;35.97;26.80;;;3.20;99.90;;;;;;5065605;28;20451;-77
2020/12/09 07:13:05;;;;;;;40.63;28.77;;;3.20;99.90;;;;;;5053642;28;20452;-75
2020/12/09 07:15:32;;;;;;;41.43;29.00;;;3.10;99.90;;;;;;5058951;28;20594;-76
2020/12/09 07:17:59;;;;;;;39.20;29.17;;;3.10;99.90;;;;;;5063274;28;20510;-76
2020/12/09 07:20:26;;;;;;;49.70;30.13;;;3.10;99.90;;;;;;5060661;28;20587;-76
2020/12/09 07:22:53;;;;;;;45.87;31.37;;;3.10;99.90;;;;;;5064824;28;20486;-76
2020/12/09 07:25:20;;;;;;;43.63;29.40;;;3.00;99.90;;;;;;5066667;28;20467;-76
2020/12/09 07:27:47;;;;;;;47.80;30.10;;;3.10;99.90;;;;;;5060042;28;20456;-77
2020/12/09 07:30:16;;;;;;;37.80;28.07;;;3.10;99.90;;;;;;5060257;28;20470;-77
2020/12/09 07:32:43;;;;;;;42.90;29.30;;;3.10;99.90;;;;;;5065524;28;20444;-76
2020/12/09 07:35:11;;;;;;;44.33;30.70;;;3.10;99.90;;;;;;5059712;28;20454;-76
2020/12/09 07:37:41;;;;;;;44.87;30.37;;;3.10;99.90;;;;;;5066787;28;20451;-76
2020/12/09 07:40:13;;;;;;;44.63;31.57;;;3.10;99.90;;;;;;5061073;28;20563;-76
2020/12/09 07:42:39;;;;;;;50.50;32.90;;;3.10;99.90;;;;;;5059349;28;20479;-76
2020/12/09 07:45:10;;;;;;;46.90;31.13;;;3.10;99.90;;;;;;5056765;28;20518;-78
2020/12/09 07:47:37;;;;;;;51.20;33.50;;;3.00;99.90;;;;;;5062789;28;20525;-75
2020/12/09 07:50:05;;;;;;;46.77;32.80;;;3.10;99.90;;;;;;5063024;28;20452;-76
2020/12/09 07:52:33;;;;;;;49.50;32.07;;;3.00;99.90;;;;;;5064460;28;20745;-75
2020/12/09 07:55:02;;;;;;;46.47;31.73;;;3.00;99.90;;;;;;5066600;28;20452;-81
2020/12/09 07:57:33;;;;;;;47.17;31.90;;;3.00;99.90;;;;;;5059058;28;20529;-76
2020/12/09 08:00:00;;;;;;;52.53;34.20;;;2.90;99.90;;;;;;5067104;28;20535;-75
2020/12/09 08:02:28;;;;;;;51.27;32.90;;;2.90;99.90;;;;;;5054777;28;20775;-74
2020/12/09 08:05:10;;;;;;;54.97;35.83;;;2.90;99.90;;;;;;5064833;28;20470;-75
2020/12/09 08:07:49;;;;;;;56.60;34.97;;;2.80;99.90;;;;;;5058916;28;20534;-75
2020/12/09 08:10:21;;;;;;;52.63;33.17;;;2.70;99.90;;;;;;5061259;28;20451;-76
2020/12/09 08:12:48;;;;;;;51.93;32.87;;;2.80;99.90;;;;;;5066075;28;20460;-75
2020/12/09 08:15:14;;;;;;;52.50;33.40;;;2.70;99.90;;;;;;5059896;28;20525;-74
2020/12/09 08:17:46;;;;;;;49.43;35.13;;;2.70;99.90;;;;;;5062982;28;21953;-75
2020/12/09 08:20:14;;;;;;;57.37;34.90;;;2.80;99.90;;;;;;5069971;28;20455;-77
2020/12/09 08:23:01;;;;;;;59.73;34.60;;;2.70;99.90;;;;;;5061052;28;20518;-76
2020/12/09 08:25:29;;;;;;;53.00;35.07;;;2.80;99.90;;;;;;5053167;28;20472;-75
2020/12/09 08:28:04;;;;;;;53.83;33.93;;;2.70;99.90;;;;;;5069550;28;21146;-75
2020/12/09 08:30:30;;;;;;;52.27;33.37;;;2.60;99.90;;;;;;5066448;28;20444;-76
2020/12/09 08:33:06;;;;;;;51.60;33.60;;;2.60;99.90;;;;;;5060838;28;21025;-75
2020/12/09 08:35:50;;;;;;;61.30;36.17;;;2.70;99.90;;;;;;5058599;28;20490;-76
2020/12/09 08:38:25;;;;;;;57.30;37.23;;;2.70;99.90;;;;;;5058841;28;20462;-79
2020/12/09 08:40:54;;;;;;;58.07;37.50;;;2.70;99.90;;;;;;5066949;28;20455;-75
2020/12/09 08:43:23;;;;;;;53.67;35.27;;;2.60;99.90;;;;;;5052532;28;20483;-76
2020/12/09 08:45:49;;;;;;;57.73;36.60;;;2.80;99.90;;;;;;5066229;28;20466;-75
2020/12/09 08:48:18;;;;;;;58.93;39.50;;;2.80;99.90;;;;;;5060058;28;20445;-75
2020/12/09 08:50:46;;;;;;;57.80;35.03;;;2.70;99.90;;;;;;5059669;28;20733;-75
2020/12/09 08:53:12;;;;;;;53.67;35.80;;;2.70;99.90;;;;;;5058359;28;20452;-75
2020/12/09 08:55:39;;;;;;;56.07;36.60;;;2.70;99.90;;;;;;5052448;28;20885;-75
2020/12/09 08:58:06;;;;;;;52.73;33.87;;;2.60;99.90;;;;;;5057304;28;20461;-76
2020/12/09 09:00:36;;;;;;;50.20;33.97;;;2.60;99.90;;;;;;5062993;28;20444;-76
2020/12/09 09:03:03;;;;;;;55.93;37.00;;;2.60;99.90;;;;;;5061709;28;20479;-75
2020/12/09 09:05:31;;;;;;;57.07;36.07;;;2.70;99.90;;;;;;5063511;28;20463;-75
2020/12/09 09:07:58;;;;;;;55.40;36.47;;;2.80;99.90;;;;;;5059518;28;20558;-76
2020/12/09 09:10:24;;;;;;;57.50;36.00;;;2.70;99.90;;;;;;5069620;28;20451;-78
2020/12/09 09:12:51;;;;;;;52.67;35.67;;;2.80;99.90;;;;;;5065736;28;20609;-82
2020/12/09 09:15:18;;;;;;;51.53;34.07;;;2.80;99.90;;;;;;5071177;28;20478;-78
2020/12/09 09:17:45;;;;;;;44.27;32.17;;;2.80;99.90;;;;;;5065479;28;20447;-82
2020/12/09 09:20:11;;;;;;;52.53;32.87;;;2.70;99.90;;;;;;5063172;28;20456;-78
2020/12/09 09:22:38;;;;;;;51.33;33.40;;;2.80;99.90;;;;;;5071027;28;20444;-76
2020/12/09 09:25:05;;;;;;;48.17;32.53;;;2.80;99.90;;;;;;5063010;28;20486;-76
2020/12/09 09:27:32;;;;;;;45.47;31.57;;;2.90;99.90;;;;;;5063197;28;20456;-76
2020/12/09 09:29:58;;;;;;;50.50;32.73;;;2.70;99.90;;;;;;5064843;28;20457;-76
2020/12/09 09:32:26;;;;;;;51.87;32.93;;;2.80;99.90;;;;;;5063123;28;20541;-76
2020/12/09 09:34:53;;;;;;;54.70;35.40;;;2.90;99.90;;;;;;5062087;28;20508;-76
2020/12/09 09:37:21;;;;;;;58.23;33.33;;;2.90;99.90;;;;;;5059440;28;20449;-78
2020/12/09 09:39:49;;;;;;;52.50;33.67;;;2.80;99.70;;;;;;5064203;28;20823;-76
2020/12/09 09:42:17;;;;;;;50.80;33.57;;;2.80;99.90;;;;;;5053751;28;20451;-76
2020/12/09 09:44:44;;;;;;;52.83;34.50;;;3.00;99.90;;;;;;5059773;28;20547;-77
2020/12/09 09:47:10;;;;;;;55.10;35.50;;;3.00;99.90;;;;;;5067028;28;20475;-78
2020/12/09 09:49:38;;;;;;;50.30;34.00;;;3.10;99.90;;;;;;5062944;28;20454;-77
2020/12/09 09:52:05;;;;;;;46.50;34.57;;;3.00;99.90;;;;;;5066480;28;20489;-76
2020/12/09 09:54:32;;;;;;;49.90;32.80;;;2.90;97.00;;;;;;5062103;28;20991;-77
2020/12/09 09:56:58;;;;;;;58.57;33.97;;;3.00;96.50;;;;;;5063840;28;20951;-78
2020/12/09 09:59:25;;;;;;;48.50;32.30;;;3.00;96.30;;;;;;5069175;28;20447;-77
2020/12/09 10:01:52;;;;;;;49.50;32.80;;;3.10;96.50;;;;;;5069727;28;20484;-77
2020/12/09 10:04:19;;;;;;;46.10;37.72;;;3.20;94.80;;;;;;5070635;28;20870;-79
2020/12/09 10:06:50;;;;;;;44.03;33.10;;;3.10;96.20;;;;;;5055632;28;20854;-82
2020/12/09 10:09:18;;;;;;;44.20;31.63;;;3.00;94.40;;;;;;5065702;28;20452;-79
2020/12/09 10:11:45;;;;;;;42.87;29.90;;;2.90;94.10;;;;;;5062412;28;20448;-79
2020/12/09 10:14:12;;;;;;;47.50;30.80;;;2.90;94.70;;;;;;5072115;28;20475;-79
2020/12/09 10:16:41;;;;;;;43.07;29.20;;;2.90;96.20;;;;;;5066464;28;22531;-79
2020/12/09 10:19:08;;;;;;;44.80;30.17;;;3.00;96.20;;;;;;5069851;28;20541;-79
2020/12/09 10:21:35;;;;;;;45.77;30.57;;;3.00;95.20;;;;;;5065306;28;20590;-79
2020/12/09 10:24:05;;;;;;;42.00;28.97;;;2.90;96.60;;;;;;5065261;28;20516;-78
2020/12/09 10:26:33;;;;;;;47.80;31.30;;;2.80;96.00;;;;;;5059062;28;20463;-78
2020/12/09 10:29:01;;;;;;;49.23;31.67;;;2.90;98.30;;;;;;5061338;28;20972;-78
2020/12/09 10:31:33;;;;;;;45.63;31.67;;;2.90;96.40;;;;;;5055164;28;20504;-78
2020/12/09 10:34:00;;;;;;;46.53;30.17;;;2.90;98.40;;;;;;5065475;28;20968;-77
2020/12/09 10:36:27;;;;;;;45.70;31.87;;;2.90;96.10;;;;;;5061687;28;20485;-77
2020/12/09 10:38:54;;;;;;;48.00;33.03;;;2.90;95.80;;;;;;5064742;28;20449;-78
2020/12/09 10:41:21;;;;;;;46.07;31.80;;;2.90;94.90;;;;;;5066640;28;20449;-77
2020/12/09 10:43:51;;;;;;;45.70;31.63;;;2.90;96.50;;;;;;5065335;28;20474;-78
2020/12/09 10:46:18;;;;;;;49.73;33.43;;;2.90;94.90;;;;;;5071069;28;20447;-78
2020/12/09 10:48:44;;;;;;;49.27;33.57;;;2.90;96.10;;;;;;5060395;28;20472;-79
2020/12/09 10:51:11;;;;;;;48.30;32.87;;;2.90;95.80;;;;;;5063069;28;20445;-79
2020/12/09 10:53:37;;;;;;;53.07;33.90;;;2.90;95.50;;;;;;5060298;28;20861;-80
2020/12/09 10:56:04;;;;;;;50.60;35.87;;;3.00;97.70;;;;;;5075409;28;20450;-82
2020/12/09 10:58:32;;;;;;;48.53;32.87;;;3.10;97.20;;;;;;5076743;28;20438;-81
2020/12/09 11:00:58;;;;;;;54.23;32.63;;;3.20;96.20;;;;;;5069211;28;20483;-79
2020/12/09 11:03:25;;;;;;;46.13;32.30;;;3.20;94.70;;;;;;5059022;28;20522;-81
2020/12/09 11:05:53;;;;;;;44.00;30.40;;;3.10;93.90;;;;;;5070615;28;20455;-80
2020/12/09 11:08:20;;;;;;;46.03;31.20;;;3.10;94.70;;;;;;5081502;28;20456;-80
2020/12/09 11:10:48;;;;;;;45.00;33.57;;;3.00;97.60;;;;;;5071681;28;20449;-80
2020/12/09 11:13:14;;;;;;;45.07;30.90;;;3.00;96.70;;;;;;5075479;28;20482;-80
2020/12/09 11:15:41;;;;;;;48.20;33.70;;;2.90;95.10;;;;;;5073610;28;20452;-78
2020/12/09 11:18:08;;;;;;;46.73;33.90;;;2.90;98.60;;;;;;5076683;28;20430;-78
2020/12/09 11:20:35;;;;;;;48.93;32.87;;;2.90;98.10;;;;;;5082767;28;20448;-80
2020/12/09 11:23:02;;;;;;;46.27;32.50;;;2.90;96.90;;;;;;5073536;28;20484;-77
2020/12/09 11:25:28;;;;;;;42.80;30.23;;;2.90;97.60;;;;;;5063423;28;20538;-76
2020/12/09 11:27:55;;;;;;;50.77;31.37;;;2.90;97.00;;;;;;5069153;28;20461;-76
2020/12/09 11:30:21;;;;;;;45.60;31.10;;;2.90;97.80;;;;;;5063574;28;20469;-76
2020/12/09 11:32:49;;;;;;;47.40;30.43;;;3.00;96.10;;;;;;5065729;28;20449;-77
2020/12/09 11:35:15;;;;;;;43.80;31.93;;;2.80;96.90;;;;;;5063015;28;20469;-79
2020/12/09 11:37:42;;;;;;;46.20;32.10;;;2.90;97.50;;;;;;5065581;28;20455;-79
2020/12/09 11:40:08;;;;;;;49.77;33.27;;;3.00;95.90;;;;;;5066179;28;20476;-84
2020/12/09 11:42:36;;;;;;;44.90;31.67;;;3.00;97.10;;;;;;5076823;28;20446;-82
2020/12/09 11:45:04;;;;;;;47.03;31.43;;;2.90;93.70;;;;;;5064359;28;20962;-79
2020/12/09 11:47:31;;;;;;;44.07;31.80;;;2.80;95.90;;;;;;5064941;28;20514;-78
2020/12/09 11:49:58;;;;;;;47.67;33.00;;;3.00;99.00;;;;;;5058866;28;20511;-78
2020/12/09 11:52:24;;;;;;;51.97;34.37;;;3.00;95.50;;;;;;5068477;28;20443;-80
2020/12/09 11:54:51;;;;;;;46.83;33.90;;;3.00;95.70;;;;;;5062957;28;20471;-78
2020/12/09 11:57:17;;;;;;;54.77;35.30;;;3.10;95.30;;;;;;5061270;28;22506;-78
2020/12/09 11:59:44;;;;;;;48.00;34.70;;;3.00;93.20;;;;;;5068126;28;20455;-78
2020/12/09 12:02:10;;;;;;;48.53;32.37;;;3.00;93.90;;;;;;5070109;28;20444;-78
2020/12/09 12:04:37;;;;;;;53.03;33.57;;;3.00;93.10;;;;;;5068611;28;20477;-77
2020/12/09 12:07:04;;;;;;;45.23;32.30;;;2.90;93.60;;;;;;5062774;28;20452;-79
2020/12/09 12:09:30;;;;;;;44.50;33.13;;;2.90;98.20;;;;;;5069528;28;20446;-78
2020/12/09 12:11:57;;;;;;;46.37;32.50;;;2.90;97.80;;;;;;5070806;28;20521;-79
2020/12/09 12:14:24;;;;;;;52.83;35.37;;;2.90;95.30;;;;;;5069450;28;20479;-77
2020/12/09 12:16:50;;;;;;;45.20;30.07;;;2.90;96.90;;;;;;5065299;28;20454;-78
2020/12/09 12:19:18;;;;;;;46.77;32.87;;;2.80;95.40;;;;;;5066237;28;20458;-78
2020/12/09 12:21:48;;;;;;;47.93;32.67;;;2.90;99.90;;;;;;5065503;28;20519;-78
2020/12/09 12:24:16;;;;;;;45.93;31.10;;;2.90;98.90;;;;;;5056946;28;20513;-78
2020/12/09 12:26:43;;;;;;;45.07;30.53;;;2.80;97.40;;;;;;5067533;28;20454;-79
2020/12/09 12:29:09;;;;;;;46.50;30.73;;;2.80;95.10;;;;;;5071420;28;20541;-78
2020/12/09 12:31:36;;;;;;;44.80;31.13;;;2.60;97.50;;;;;;5063190;28;20765;-78
2020/12/09 12:34:03;;;;;;;53.80;34.33;;;2.60;99.90;;;;;;5066453;28;20473;-78
2020/12/09 12:36:29;;;;;;;49.30;31.73;;;2.70;99.90;;;;;;5067961;28;20466;-78
2020/12/09 12:38:56;;;;;;;44.37;30.23;;;2.80;98.50;;;;;;5064119;28;21002;-78
2020/12/09 12:41:23;;;;;;;46.50;31.50;;;2.70;99.40;;;;;;5060234;28;20522;-78